FMCV

Ouani Airport

Ouani, Comoros
METAR FMCV 141500Z 32004KT 9999 SCT018 28/24 Q1012
Observed Flight Rules
Dec-14 @ 15:00 UTC (7 hours ago) Visual Flight Rules
Wind Visibility Clouds
320° at 4 knots 10,000+ meters
  • Scattered at 1,800' AGL
Temperatures Readings
Current 28°C / 82°F
Dewpoint 24°C / 75°F
Humidity 79%
Altimeter 29.88" Hg
Pressure 1012 hPa
Elevation 12
METAR FMCV 141500Z 32004KT 9999 SCT018 28/24 Q1012
Observed Flight Rules
Dec-14 @ 15:00 UTC
(7 hours ago)
VFR
Wind Visibility
320° at 4 knots 10,000+ meters
Clouds
  • Scattered at 1,800' AGL
Temperature Dewpoint
28°C / 82°F 24°C / 75°F
Humidity Altimeter Pressure
79% 29.88" Hg 1012 hPa